Redgranite, Wisconsin
Current Conditions -  °F | °C
As of 11:26 PM on Saturday 20 Dec 2014 (Local Time) from KY50 Reporting Station
Haze Haze  
Wind Chill: 25°   Ceiling: 800
Heat Index: 30°   Visibility: 5mi
Dew Point: 28°   Wind: 5mph
Humidity: 93%   Direction: 150°SSE
Pressure: 30.19"   Gusts: NA
Location:  44.04°N, 89.1°W
Report Text: KY50 210526Z AUTO 15004KT 5SM BR BKN008 OVC014 M01/M02 A3019 RMK AO2 TSNO CIG 007V010
Loading
Personal Weather Stations






























Interactive Weather Map New forecast layout! Learn more

10-Day Weather Forecast

Advertisements
Track Severe Weather on mobile